Low Head, Tasmania

2:14 PM AEDT on October 22, 2014 (GMT +1100)
Deviot | Change Station
CLOSE
Current Station
Personal Weather Station
Location: Deviot, TASMANIA
Elevation: 56 ft
Nearby Weather Stations

Elev 56 ft 41.23 °S, 146.93 °E | Updated 1 second ago

Clear
Clear
72.9 °F
Feels Like 77 °F
N
6.0
Wind Variable Wind from NW
Gusts 9.8 mph

Today
High -- | Low -- °F
--% Chance of Precip.
Yesterday
High -- | Low -- °F
Precip. -- in
6:14 AM 7:41 PM
Waning Crescent, 3% visible
Pressure 30.01 in
Visibility 6.2 miles
Clouds
Heat Index 77 °F
Dew Point 55 °F
Humidity 54%
Rainfall 0.00 in
Snow Depth Not available.
UV Not available.
Pollen Not available.
Air Quality Not available.
Flu Activity Not available.
METAR YMLT 220300Z AUTO 34016KT 9999 // NCD 22/10 Q1016

More Conditions Fewer Conditions

Pressure 30.01 in
Visibility 6.2 miles
Clouds
Heat Index 77 °F
Dew Point 55 °F
Humidity 54%
Rainfall 0.00 in
Snow Depth Not available.
UV Not available.
Pollen Not available.
Air Quality Not available.
Flu Activity Not available.
METAR YMLT 220300Z AUTO 34016KT 9999 // NCD 22/10 Q1016

More Conditions Fewer Conditions

10-Day Weather Forecast

Almanac

Astronomy

Oct. 22, 2014 Rise Set
Actual Time 6:14 AM AEDT 7:41 PM AEDT
Civil Twilight 5:45 AM AEDT 8:09 PM AEDT
Nautical Twilight 5:10 AM AEDT 8:44 PM AEDT
Astronomical Twilight 4:34 AM AEDT 9:21 PM AEDT
Moon 5:14 AM AEDT 6:02 PM AEDT
Length of Visible Light 14h 24m
Length of Day
13h 26m
Tomorrow will be 2m 38s longer.
Waning Crescent, 3% of the Moon is Illuminated
Oct 21
Waning Crescent
Oct 23
New
Oct 30
First Quarter
Nov 6
Full
Nov 14
Last Quarter

Yesterday's Extremes

Country Highs Country Lows

Community

WunderPhotos

Upload Photos

1,763,869 photos uploaded!

Nearby

Snow Depth

Not available.

Earthquake Activity

City Distance Mag. Time & Date
No recent earthquake activity has been reported nearby.
Minimum magnitude displayed is 2.5.

Coastal Water Temperatures

Place Temperature
No Stations Reporting

Nearby Weather Stations